createdAt,value
2022-12-17T00:00:26.035Z,52.93
2022-12-17T00:01:22.666Z,52.92
2022-12-17T00:02:21.645Z,52.90
2022-12-17T00:03:21.786Z,52.91
2022-12-17T00:04:21.624Z,52.90
2022-12-17T00:05:21.566Z,52.99
2022-12-17T00:06:21.551Z,52.93
2022-12-17T00:07:21.527Z,52.97
2022-12-17T00:08:21.516Z,52.97
2022-12-17T00:09:21.753Z,52.94
2022-12-17T00:10:21.480Z,52.94
2022-12-17T00:11:21.543Z,52.99
2022-12-17T00:12:21.448Z,52.96
2022-12-17T00:13:21.557Z,52.98
2022-12-17T00:14:21.413Z,53.04
2022-12-17T00:15:21.420Z,53.22
2022-12-17T00:16:21.595Z,53.24
2022-12-17T00:17:21.396Z,53.25
2022-12-17T00:18:21.381Z,53.15
2022-12-17T00:19:21.570Z,53.16
2022-12-17T00:20:21.346Z,53.17
2022-12-17T00:21:21.335Z,53.20
2022-12-17T00:22:21.322Z,53.24
2022-12-17T00:23:21.723Z,53.23
2022-12-17T00:24:21.313Z,53.24
2022-12-17T00:25:21.411Z,53.51
2022-12-17T00:26:21.260Z,53.38
2022-12-17T00:27:21.270Z,53.36
2022-12-17T00:28:21.210Z,53.27
2022-12-17T00:29:21.345Z,53.19
2022-12-17T00:30:21.173Z,53.15
2022-12-17T00:31:21.309Z,53.15
2022-12-17T00:32:21.164Z,53.17
2022-12-17T00:33:21.171Z,53.12
2022-12-17T00:34:21.294Z,53.29
2022-12-17T00:35:21.266Z,53.22
2022-12-17T00:36:21.122Z,53.25
2022-12-17T00:37:21.133Z,53.21
2022-12-17T00:38:21.391Z,53.26
2022-12-17T00:39:21.096Z,53.33
2022-12-17T00:40:21.082Z,53.27
2022-12-17T00:41:21.088Z,53.30
2022-12-17T00:42:21.016Z,53.33
2022-12-17T00:43:21.080Z,53.29
2022-12-17T00:44:21.016Z,53.27
2022-12-17T00:45:21.024Z,53.29
2022-12-17T00:46:21.122Z,53.25
2022-12-17T00:47:21.012Z,53.28
2022-12-17T00:48:20.974Z,53.23
2022-12-17T00:49:21.006Z,53.33
2022-12-17T00:50:20.947Z,53.24
2022-12-17T00:51:20.973Z,53.14
2022-12-17T00:52:20.959Z,53.29
2022-12-17T00:53:20.972Z,53.27
2022-12-17T00:54:20.919Z,53.24
2022-12-17T00:55:20.953Z,53.24
2022-12-17T00:56:20.906Z,53.23
2022-12-17T00:57:20.927Z,53.17
2022-12-17T00:58:20.865Z,53.19
2022-12-17T00:59:20.912Z,53.20
2022-12-17T01:00:20.865Z,53.17
2022-12-17T01:01:21.046Z,53.21
2022-12-17T01:02:20.960Z,53.20
2022-12-17T01:03:20.864Z,53.22
2022-12-17T01:04:20.860Z,53.23
2022-12-17T01:05:20.869Z,53.21
2022-12-17T01:06:20.829Z,53.27
2022-12-17T01:07:20.828Z,53.22
2022-12-17T01:08:20.808Z,53.26
2022-12-17T01:09:20.815Z,53.24
2022-12-17T01:10:20.824Z,53.23
2022-12-17T01:11:20.862Z,53.24
2022-12-17T01:12:20.794Z,53.17
2022-12-17T01:13:20.811Z,53.23
2022-12-17T01:14:20.780Z,53.20
2022-12-17T01:15:20.859Z,53.21
2022-12-17T01:16:20.799Z,53.17
2022-12-17T01:17:20.736Z,53.18
2022-12-17T01:18:20.716Z,53.18
2022-12-17T01:19:20.725Z,53.17
2022-12-17T01:20:20.712Z,53.19
2022-12-17T01:21:20.717Z,53.21
2022-12-17T01:22:20.694Z,53.24
2022-12-17T01:23:20.697Z,53.16
2022-12-17T01:24:20.686Z,53.20
2022-12-17T01:25:20.662Z,53.20
2022-12-17T01:26:20.656Z,53.18
2022-12-17T01:27:20.643Z,53.18
2022-12-17T01:28:20.637Z,53.09
2022-12-17T01:29:20.643Z,53.16
2022-12-17T01:30:20.613Z,53.19
2022-12-17T01:31:20.687Z,53.17
2022-12-17T01:32:20.600Z,53.18
2022-12-17T01:33:20.604Z,53.18
2022-12-17T01:34:20.606Z,53.14
2022-12-17T01:35:20.620Z,53.14
2022-12-17T01:36:20.575Z,53.08
2022-12-17T01:37:20.586Z,53.12
2022-12-17T01:38:20.722Z,53.09
2022-12-17T01:39:20.610Z,53.09
2022-12-17T01:40:20.526Z,53.05
2022-12-17T01:41:20.544Z,53.08
2022-12-17T01:42:20.504Z,53.07
2022-12-17T01:43:20.525Z,53.03
2022-12-17T01:44:20.492Z,53.10
2022-12-17T01:45:20.505Z,53.08
2022-12-17T01:46:20.524Z,53.07
2022-12-17T01:47:20.470Z,53.07
2022-12-17T01:48:20.461Z,53.09
2022-12-17T01:49:20.463Z,53.07
2022-12-17T01:50:20.411Z,53.09
2022-12-17T01:51:20.420Z,53.06
2022-12-17T01:52:20.409Z,53.08
2022-12-17T01:53:20.433Z,53.05
2022-12-17T01:54:20.399Z,53.09
2022-12-17T01:55:20.378Z,53.06
2022-12-17T01:56:20.526Z,53.04
2022-12-17T01:57:23.058Z,53.03
2022-12-17T01:58:20.332Z,53.03
2022-12-17T01:59:20.362Z,53.02
2022-12-17T02:00:20.333Z,52.99
2022-12-17T02:01:20.634Z,53.01
2022-12-17T02:02:20.404Z,53.02
2022-12-17T02:03:20.419Z,53.03
2022-12-17T02:04:20.317Z,53.04
2022-12-17T02:05:20.369Z,53.00
2022-12-17T02:06:20.281Z,53.00
2022-12-17T02:07:20.348Z,53.02
2022-12-17T02:08:20.294Z,53.03
2022-12-17T02:09:20.305Z,53.01
2022-12-17T02:10:20.277Z,53.03
2022-12-17T02:11:20.277Z,53.08
2022-12-17T02:12:20.271Z,53.04
2022-12-17T02:13:20.265Z,53.04
2022-12-17T02:14:20.231Z,53.00
2022-12-17T02:15:20.266Z,53.04
2022-12-17T02:16:20.313Z,53.00
2022-12-17T02:17:20.228Z,52.98
2022-12-17T02:18:20.222Z,53.06
2022-12-17T02:19:20.237Z,53.07
2022-12-17T02:20:20.225Z,53.04
2022-12-17T02:21:20.215Z,53.02
2022-12-17T02:22:20.240Z,53.03
2022-12-17T02:23:20.345Z,52.99
2022-12-17T02:24:20.192Z,53.01
2022-12-17T02:25:20.463Z,52.97
2022-12-17T02:26:20.331Z,53.00
2022-12-17T02:27:20.349Z,52.97
2022-12-17T02:28:20.412Z,52.95
2022-12-17T02:29:20.344Z,52.98
2022-12-17T02:30:20.287Z,52.95
2022-12-17T02:31:20.321Z,52.96
2022-12-17T02:32:20.180Z,52.99
2022-12-17T02:33:20.144Z,52.95
2022-12-17T02:34:20.135Z,52.99
2022-12-17T02:35:20.200Z,52.94
2022-12-17T02:36:20.144Z,52.97
2022-12-17T02:37:20.112Z,52.95
2022-12-17T02:38:20.103Z,52.93
2022-12-17T02:39:20.167Z,52.96
2022-12-17T02:40:20.073Z,52.96
2022-12-17T02:41:20.106Z,52.96
2022-12-17T02:42:20.104Z,52.92
2022-12-17T02:43:20.100Z,52.95
2022-12-17T02:44:20.065Z,52.96
2022-12-17T02:45:20.088Z,52.96
2022-12-17T02:46:20.181Z,52.94
2022-12-17T02:47:20.111Z,52.96
2022-12-17T02:48:20.095Z,52.94
2022-12-17T02:49:20.084Z,52.93
2022-12-17T02:50:20.072Z,52.97
2022-12-17T02:51:20.136Z,52.94
2022-12-17T02:52:20.090Z,52.93
2022-12-17T02:53:20.121Z,52.96
2022-12-17T02:54:20.078Z,52.94
2022-12-17T02:55:20.127Z,52.93
2022-12-17T02:56:20.067Z,52.90
2022-12-17T02:57:20.101Z,52.93
2022-12-17T02:58:20.068Z,52.92
2022-12-17T02:59:20.092Z,52.93
2022-12-17T03:00:20.081Z,52.94
2022-12-17T03:01:20.130Z,52.93
2022-12-17T03:02:20.174Z,52.95
2022-12-17T03:03:20.138Z,52.92
2022-12-17T03:04:20.046Z,52.88
2022-12-17T03:05:44.080Z,52.89
2022-12-17T03:06:21.072Z,52.89
2022-12-17T03:07:20.013Z,52.91
2022-12-17T03:08:20.063Z,52.85
2022-12-17T03:09:20.028Z,52.87
2022-12-17T03:10:20.094Z,52.82
2022-12-17T03:11:20.011Z,52.88
2022-12-17T03:12:20.081Z,52.86
2022-12-17T03:13:20.042Z,52.85
2022-12-17T03:14:20.064Z,52.85
2022-12-17T03:15:20.148Z,52.84
2022-12-17T03:16:20.106Z,52.82
2022-12-17T03:17:20.323Z,52.82
2022-12-17T03:18:20.019Z,52.79
2022-12-17T03:19:19.974Z,52.84
2022-12-17T03:20:20.039Z,52.83
2022-12-17T03:21:20.003Z,52.80
2022-12-17T03:22:20.027Z,52.81
2022-12-17T03:23:19.987Z,52.84
2022-12-17T03:24:19.991Z,52.84
2022-12-17T03:25:19.941Z,52.87
2022-12-17T03:26:19.987Z,52.84
2022-12-17T03:27:19.987Z,52.85
2022-12-17T03:28:19.990Z,52.85
2022-12-17T03:29:19.959Z,52.86
2022-12-17T03:30:20.105Z,52.84
2022-12-17T03:31:20.011Z,52.83
2022-12-17T03:32:20.010Z,52.86
2022-12-17T03:33:19.948Z,52.81
2022-12-17T03:34:20.150Z,52.86
2022-12-17T03:35:19.948Z,52.81
2022-12-17T03:36:19.960Z,52.82
2022-12-17T03:37:19.917Z,52.82
2022-12-17T03:38:19.992Z,52.83
2022-12-17T03:39:19.908Z,52.79
2022-12-17T03:40:20.018Z,52.80
2022-12-17T03:41:19.921Z,52.78
2022-12-17T03:42:19.953Z,52.74
2022-12-17T03:43:19.898Z,52.77
2022-12-17T03:44:19.943Z,52.76
2022-12-17T03:45:19.883Z,52.79
2022-12-17T03:46:19.988Z,52.78
2022-12-17T03:47:19.905Z,52.74
2022-12-17T03:48:19.900Z,52.76
2022-12-17T03:49:19.873Z,52.75
2022-12-17T03:50:20.161Z,52.74
2022-12-17T03:51:19.868Z,52.73
2022-12-17T03:52:19.884Z,52.74
2022-12-17T03:53:19.935Z,52.74
2022-12-17T03:54:19.855Z,52.70
2022-12-17T03:55:19.868Z,52.70
2022-12-17T03:56:19.871Z,52.70
2022-12-17T03:57:19.873Z,52.72
2022-12-17T03:58:19.847Z,52.72
2022-12-17T03:59:19.827Z,52.75
2022-12-17T04:00:20.016Z,52.74
2022-12-17T04:01:19.925Z,52.74
2022-12-17T04:02:20.118Z,52.75
2022-12-17T04:03:19.840Z,52.71
2022-12-17T04:04:19.826Z,52.72
2022-12-17T04:05:20.540Z,52.70
2022-12-17T04:06:19.805Z,52.70
2022-12-17T04:07:19.856Z,52.67
2022-12-17T04:08:19.826Z,52.65
2022-12-17T04:09:19.792Z,52.65
2022-12-17T04:10:19.786Z,52.62
2022-12-17T04:11:19.760Z,52.63
2022-12-17T04:12:19.846Z,52.64
2022-12-17T04:13:19.790Z,52.65
2022-12-17T04:14:19.767Z,52.66
2022-12-17T04:15:19.771Z,52.65
2022-12-17T04:16:19.735Z,52.63
2022-12-17T04:17:19.711Z,52.61
2022-12-17T04:18:19.729Z,52.62
2022-12-17T04:19:19.711Z,52.63
2022-12-17T04:20:19.709Z,52.63
2022-12-17T04:21:19.682Z,52.63
2022-12-17T04:22:19.687Z,52.61
2022-12-17T04:23:19.679Z,52.62
2022-12-17T04:24:19.678Z,52.62
2022-12-17T04:25:19.762Z,52.63
2022-12-17T04:26:19.699Z,52.59
2022-12-17T04:27:19.696Z,52.62
2022-12-17T04:28:19.895Z,52.60
2022-12-17T04:29:19.642Z,52.60
2022-12-17T04:30:19.698Z,52.57
2022-12-17T04:31:19.782Z,52.61
2022-12-17T04:32:19.660Z,52.60
2022-12-17T04:33:19.632Z,52.59
2022-12-17T04:34:19.689Z,52.57
2022-12-17T04:35:19.647Z,52.62
2022-12-17T04:36:19.653Z,52.58
2022-12-17T04:37:19.650Z,52.57
2022-12-17T04:38:19.887Z,52.55
2022-12-17T04:39:19.619Z,52.56
2022-12-17T04:40:19.784Z,52.55
2022-12-17T04:41:19.585Z,52.57
2022-12-17T04:42:19.627Z,52.62
2022-12-17T04:43:19.582Z,52.58
2022-12-17T04:44:19.599Z,52.62
2022-12-17T04:45:19.587Z,52.59
2022-12-17T04:46:19.846Z,52.56
2022-12-17T04:47:19.574Z,52.53
2022-12-17T04:48:19.576Z,52.54
2022-12-17T04:49:19.565Z,52.52
2022-12-17T04:50:19.579Z,52.52
2022-12-17T04:51:19.675Z,52.54
2022-12-17T04:52:19.552Z,52.51
2022-12-17T04:53:19.511Z,52.50
2022-12-17T04:54:19.790Z,52.49
2022-12-17T04:55:19.513Z,52.49
2022-12-17T04:56:19.494Z,52.52
2022-12-17T04:57:19.494Z,52.53
2022-12-17T04:58:19.472Z,52.54
2022-12-17T04:59:19.434Z,52.56
2022-12-17T05:00:19.505Z,52.55
2022-12-17T05:01:19.511Z,52.54
2022-12-17T05:02:19.531Z,52.52
2022-12-17T05:03:19.639Z,52.53
2022-12-17T05:04:19.414Z,52.49
2022-12-17T05:05:19.465Z,52.48
2022-12-17T05:06:19.448Z,52.50
2022-12-17T05:07:19.791Z,52.46
2022-12-17T05:08:19.352Z,52.48
2022-12-17T05:09:20.200Z,52.49
2022-12-17T05:10:20.470Z,52.51
2022-12-17T05:11:21.291Z,52.48
2022-12-17T05:12:20.374Z,52.53
2022-12-17T05:13:20.695Z,52.49
2022-12-17T05:14:20.855Z,52.51
2022-12-17T05:15:19.898Z,52.51
2022-12-17T05:16:20.481Z,52.47
2022-12-17T05:17:20.284Z,52.47
2022-12-17T05:18:20.004Z,52.49
2022-12-17T05:19:20.425Z,52.48
2022-12-17T05:20:19.227Z,52.51
2022-12-17T05:21:19.204Z,52.50
2022-12-17T05:22:19.180Z,52.49
2022-12-17T05:23:20.474Z,52.47
2022-12-17T05:24:21.178Z,52.50
2022-12-17T05:25:20.771Z,52.49
2022-12-17T05:26:20.329Z,52.49
2022-12-17T05:27:21.408Z,52.47
2022-12-17T05:28:22.254Z,52.48
2022-12-17T05:29:20.781Z,52.43
2022-12-17T05:30:19.140Z,52.47
2022-12-17T05:31:19.156Z,52.47
2022-12-17T05:32:19.110Z,52.46
2022-12-17T05:33:19.139Z,52.45
2022-12-17T05:34:19.138Z,52.43
2022-12-17T05:35:19.080Z,52.44
2022-12-17T05:36:19.049Z,52.46
2022-12-17T05:37:19.043Z,52.41
2022-12-17T05:38:19.065Z,52.49
2022-12-17T05:39:19.035Z,52.52
2022-12-17T05:40:19.215Z,52.51
2022-12-17T05:41:19.015Z,52.49
2022-12-17T05:42:19.010Z,52.51
2022-12-17T05:43:19.390Z,52.49
2022-12-17T05:44:18.986Z,52.45
2022-12-17T05:45:18.990Z,52.48
2022-12-17T05:46:19.240Z,52.54
2022-12-17T05:47:18.983Z,52.48
2022-12-17T05:48:19.114Z,52.48
2022-12-17T05:49:18.939Z,52.49
2022-12-17T05:50:18.953Z,52.46
2022-12-17T05:51:18.942Z,52.49
2022-12-17T05:52:18.963Z,52.52
2022-12-17T05:53:18.989Z,52.46
2022-12-17T05:54:19.150Z,52.50
2022-12-17T05:55:19.042Z,52.49
2022-12-17T05:56:19.156Z,52.57
2022-12-17T05:57:18.896Z,52.60
2022-12-17T05:58:18.920Z,53.02
2022-12-17T05:59:18.957Z,52.88
2022-12-17T06:00:18.945Z,52.80
2022-12-17T06:01:19.051Z,52.70
2022-12-17T06:02:18.925Z,52.70
2022-12-17T06:03:18.975Z,52.85
2022-12-17T06:04:18.941Z,53.21
2022-12-17T06:05:18.887Z,53.50
2022-12-17T06:06:19.029Z,53.20
2022-12-17T06:07:18.815Z,53.63
2022-12-17T06:08:18.851Z,53.40
2022-12-17T06:09:18.805Z,53.25
2022-12-17T06:10:18.822Z,53.12
2022-12-17T06:11:18.910Z,53.30
2022-12-17T06:12:18.865Z,52.75
2022-12-17T06:13:18.792Z,52.95
2022-12-17T06:14:18.778Z,52.80
2022-12-17T06:15:18.766Z,52.77
2022-12-17T06:16:18.792Z,53.36
2022-12-17T06:17:18.756Z,53.16
2022-12-17T06:18:18.760Z,53.22
2022-12-17T06:19:18.727Z,52.94
2022-12-17T06:20:18.721Z,53.10
2022-12-17T06:21:18.704Z,53.12
2022-12-17T06:22:18.710Z,53.09
2022-12-17T06:23:18.678Z,53.20
2022-12-17T06:24:18.720Z,53.12
2022-12-17T06:25:18.685Z,52.93
2022-12-17T06:26:18.694Z,52.86
2022-12-17T06:27:18.665Z,52.83
2022-12-17T06:28:18.725Z,52.87
2022-12-17T06:29:18.655Z,52.84
2022-12-17T06:30:19.263Z,52.84
2022-12-17T06:31:18.721Z,52.88
2022-12-17T06:32:18.725Z,53.40
2022-12-17T06:33:18.629Z,53.47
2022-12-17T06:34:18.633Z,53.34
2022-12-17T06:35:18.684Z,53.54
2022-12-17T06:36:22.505Z,53.53
2022-12-17T06:37:18.581Z,53.24
2022-12-17T06:38:18.657Z,53.02
2022-12-17T06:39:18.594Z,53.13
2022-12-17T06:40:19.465Z,53.22
2022-12-17T06:41:18.549Z,52.92
2022-12-17T06:42:18.562Z,52.83
2022-12-17T06:43:19.022Z,52.99
2022-12-17T06:44:18.504Z,52.82
2022-12-17T06:45:18.482Z,52.76
2022-12-17T06:46:18.565Z,52.86
2022-12-17T06:47:18.513Z,52.88
2022-12-17T06:48:18.481Z,52.86
2022-12-17T06:49:18.465Z,52.88
2022-12-17T06:50:18.602Z,52.81
2022-12-17T06:51:18.448Z,52.97
2022-12-17T06:52:18.423Z,52.98
2022-12-17T06:53:18.413Z,52.86
2022-12-17T06:54:18.505Z,52.79
2022-12-17T06:55:18.388Z,52.90
2022-12-17T06:56:18.365Z,52.80
2022-12-17T06:57:18.318Z,52.83
2022-12-17T06:58:18.397Z,52.81
2022-12-17T06:59:18.283Z,52.88
2022-12-17T07:00:18.268Z,52.68
2022-12-17T07:01:18.372Z,52.63
2022-12-17T07:02:18.465Z,52.65
2022-12-17T07:03:18.366Z,52.52
2022-12-17T07:04:18.217Z,52.44
2022-12-17T07:05:18.151Z,52.38
2022-12-17T07:06:18.259Z,52.20
2022-12-17T07:07:18.117Z,52.22
2022-12-17T07:08:18.106Z,52.21
2022-12-17T07:09:18.093Z,52.09
2022-12-17T07:10:18.045Z,52.09
2022-12-17T07:11:18.003Z,52.03
2022-12-17T07:12:18.027Z,52.03
2022-12-17T07:13:17.959Z,51.97
2022-12-17T07:14:17.955Z,51.93
2022-12-17T07:15:17.945Z,51.88
2022-12-17T07:16:17.985Z,51.85
2022-12-17T07:17:17.873Z,51.79
2022-12-17T07:18:17.814Z,51.73
2022-12-17T07:19:20.419Z,51.77
2022-12-17T07:20:17.795Z,51.78
2022-12-17T07:21:17.724Z,51.69
2022-12-17T07:22:17.713Z,51.66
2022-12-17T07:23:17.665Z,51.60
2022-12-17T07:24:17.767Z,51.62
2022-12-17T07:25:17.614Z,51.62
2022-12-17T07:26:17.579Z,51.66
2022-12-17T07:27:17.535Z,51.63
2022-12-17T07:28:17.541Z,51.61
2022-12-17T07:29:18.468Z,51.65
2022-12-17T07:30:17.450Z,51.60
2022-12-17T07:31:17.501Z,51.66
2022-12-17T07:32:17.424Z,51.58
2022-12-17T07:33:17.378Z,51.61
2022-12-17T07:34:17.517Z,51.61
2022-12-17T07:35:17.305Z,51.67
2022-12-17T07:36:17.424Z,51.62
2022-12-17T07:37:20.486Z,51.65
2022-12-17T07:38:17.237Z,51.65
2022-12-17T07:39:17.274Z,51.58
2022-12-17T07:40:17.172Z,51.59
2022-12-17T07:41:17.280Z,51.59
2022-12-17T07:42:17.122Z,51.59
2022-12-17T07:43:17.073Z,51.60
2022-12-17T07:44:17.064Z,51.61
2022-12-17T07:45:17.005Z,51.60
2022-12-17T07:46:17.106Z,51.62
2022-12-17T07:47:17.013Z,51.69
2022-12-17T07:48:16.953Z,51.65
2022-12-17T07:49:20.113Z,51.65
2022-12-17T07:50:17.909Z,51.68
2022-12-17T07:51:16.877Z,51.62
2022-12-17T07:52:16.835Z,51.58
2022-12-17T07:53:16.806Z,51.65
2022-12-17T07:54:16.795Z,51.60
2022-12-17T07:55:18.309Z,51.63
2022-12-17T07:56:16.712Z,51.65
2022-12-17T07:57:17.288Z,51.56
2022-12-17T07:58:16.645Z,51.55
2022-12-17T07:59:16.615Z,51.51
2022-12-17T08:00:16.572Z,51.54
2022-12-17T08:01:16.629Z,51.53
2022-12-17T08:02:16.869Z,51.57
2022-12-17T08:03:16.521Z,51.52
2022-12-17T08:04:16.494Z,51.54
2022-12-17T08:05:16.427Z,51.56
2022-12-17T08:06:16.413Z,51.58
2022-12-17T08:07:16.372Z,51.57
2022-12-17T08:08:16.397Z,51.60
2022-12-17T08:09:16.305Z,51.57
2022-12-17T08:10:16.539Z,51.58
2022-12-17T08:11:16.251Z,51.56
2022-12-17T08:12:16.255Z,51.52
2022-12-17T08:13:16.283Z,51.52
2022-12-17T08:14:16.389Z,51.49
2022-12-17T08:15:16.237Z,51.48
2022-12-17T08:16:16.204Z,51.49
2022-12-17T08:17:16.089Z,51.50
2022-12-17T08:18:17.463Z,51.45
2022-12-17T08:19:16.020Z,51.49
2022-12-17T08:20:16.039Z,51.47
2022-12-17T08:21:15.984Z,51.51
2022-12-17T08:22:15.946Z,51.44
2022-12-17T08:23:15.956Z,51.44
2022-12-17T08:24:15.902Z,51.43
2022-12-17T08:25:15.838Z,51.45
2022-12-17T08:26:15.829Z,51.41
2022-12-17T08:27:15.780Z,51.42
2022-12-17T08:28:48.492Z,51.37
2022-12-17T08:29:16.867Z,51.45
2022-12-17T08:30:15.721Z,51.43
2022-12-17T08:31:15.761Z,51.41
2022-12-17T08:32:15.654Z,51.39
2022-12-17T08:33:15.652Z,51.36
2022-12-17T08:34:15.715Z,51.39
2022-12-17T08:35:15.592Z,51.37
2022-12-17T08:36:15.611Z,51.42
2022-12-17T08:37:15.539Z,51.43
2022-12-17T08:38:15.479Z,51.36
2022-12-17T08:39:15.464Z,51.41
2022-12-17T08:40:15.425Z,51.44
2022-12-17T08:41:15.399Z,51.39
2022-12-17T08:42:15.385Z,51.39
2022-12-17T08:43:15.370Z,51.42
2022-12-17T08:44:15.333Z,51.38
2022-12-17T08:45:15.312Z,51.37
2022-12-17T08:46:15.331Z,51.35
2022-12-17T08:47:15.300Z,51.34
2022-12-17T08:48:15.225Z,51.31
2022-12-17T08:49:15.224Z,51.31
2022-12-17T08:50:15.215Z,51.36
2022-12-17T08:51:15.194Z,51.35
2022-12-17T08:52:15.124Z,51.38
2022-12-17T08:53:15.116Z,51.33
2022-12-17T08:54:15.093Z,51.41
2022-12-17T08:55:15.113Z,51.42
2022-12-17T08:56:15.037Z,51.37
2022-12-17T08:57:27.126Z,51.42
2022-12-17T08:58:16.046Z,51.31
2022-12-17T08:59:15.187Z,51.35
2022-12-17T09:00:14.970Z,51.33
2022-12-17T09:01:15.018Z,51.36
2022-12-17T09:02:15.176Z,51.35
2022-12-17T09:03:15.016Z,51.37
2022-12-17T09:04:14.898Z,51.46
2022-12-17T09:05:14.813Z,51.47
2022-12-17T09:06:15.125Z,51.52
2022-12-17T09:07:14.782Z,51.50
2022-12-17T09:08:14.786Z,51.40
2022-12-17T09:09:14.723Z,51.44
2022-12-17T09:10:14.888Z,51.33
2022-12-17T09:11:14.863Z,51.58
2022-12-17T09:12:15.199Z,51.40
2022-12-17T09:13:14.670Z,51.60
2022-12-17T09:14:14.657Z,51.60
2022-12-17T09:15:14.600Z,51.65
2022-12-17T09:16:14.653Z,51.40
2022-12-17T09:17:14.568Z,51.58
2022-12-17T09:18:14.809Z,51.76
2022-12-17T09:19:14.520Z,52.05
2022-12-17T09:20:14.548Z,52.14
2022-12-17T09:21:14.486Z,50.92
2022-12-17T09:22:14.555Z,49.46
2022-12-17T09:23:14.442Z,44.98
2022-12-17T09:24:14.504Z,42.76
2022-12-17T09:25:14.479Z,40.76
2022-12-17T09:26:14.484Z,39.87
2022-12-17T09:27:14.452Z,39.13
2022-12-17T09:28:14.512Z,39.60
2022-12-17T09:29:14.507Z,40.60
2022-12-17T09:30:14.679Z,41.03
2022-12-17T09:31:14.542Z,42.61
2022-12-17T09:32:14.580Z,43.85
2022-12-17T09:33:14.545Z,44.54
2022-12-17T09:34:14.552Z,44.48
2022-12-17T09:35:14.539Z,44.11
2022-12-17T09:36:14.585Z,44.47
2022-12-17T09:37:14.556Z,44.00
2022-12-17T09:38:14.585Z,44.27
2022-12-17T09:39:14.539Z,44.18
2022-12-17T09:40:14.569Z,44.20
2022-12-17T09:41:14.552Z,43.81
2022-12-17T09:42:14.537Z,43.84
2022-12-17T09:43:14.500Z,44.17
2022-12-17T09:44:14.527Z,44.27
2022-12-17T09:45:14.506Z,44.60
2022-12-17T09:46:14.583Z,44.27
2022-12-17T09:47:14.491Z,44.50
2022-12-17T09:48:14.524Z,44.78
2022-12-17T09:49:14.486Z,44.91
2022-12-17T09:50:14.509Z,44.77
2022-12-17T09:51:14.532Z,45.01
2022-12-17T09:52:14.494Z,45.15
2022-12-17T09:53:14.458Z,45.21
2022-12-17T09:54:14.507Z,45.28
2022-12-17T09:55:14.430Z,45.44
2022-12-17T09:56:14.461Z,45.56
2022-12-17T09:57:14.457Z,45.49
2022-12-17T09:58:14.444Z,45.76
2022-12-17T09:59:14.448Z,45.80
2022-12-17T10:00:14.532Z,45.89
2022-12-17T10:01:14.508Z,45.96
2022-12-17T10:02:14.614Z,46.00
2022-12-17T10:03:14.488Z,46.19
2022-12-17T10:04:14.413Z,46.31
2022-12-17T10:05:14.346Z,46.40
2022-12-17T10:06:19.222Z,46.50
2022-12-17T10:07:15.393Z,46.65
2022-12-17T10:08:14.334Z,46.77
2022-12-17T10:09:14.370Z,47.15
2022-12-17T10:10:14.317Z,47.28
2022-12-17T10:11:14.328Z,47.34
2022-12-17T10:12:14.293Z,47.55
2022-12-17T10:13:14.317Z,48.05
2022-12-17T10:14:14.317Z,47.96
2022-12-17T10:15:14.444Z,48.16
2022-12-17T10:16:14.564Z,48.36
2022-12-17T10:17:14.286Z,48.33
2022-12-17T10:18:14.260Z,48.25
2022-12-17T10:19:14.250Z,48.18
2022-12-17T10:20:14.219Z,48.21
2022-12-17T10:21:14.344Z,48.55
2022-12-17T10:22:14.247Z,48.50
2022-12-17T10:23:14.209Z,48.50
2022-12-17T10:24:18.556Z,48.58
2022-12-17T10:25:14.211Z,48.65
2022-12-17T10:26:14.210Z,48.62
2022-12-17T10:27:14.181Z,48.64
2022-12-17T10:28:14.160Z,48.74
2022-12-17T10:29:14.150Z,48.81
2022-12-17T10:30:14.137Z,48.82
2022-12-17T10:31:14.230Z,49.10
2022-12-17T10:32:14.089Z,48.76
2022-12-17T10:33:14.089Z,49.20
2022-12-17T10:34:14.046Z,49.00
2022-12-17T10:35:14.109Z,49.12
2022-12-17T10:36:14.058Z,49.10
2022-12-17T10:37:14.071Z,49.11
2022-12-17T10:38:14.045Z,49.29
2022-12-17T10:39:14.031Z,49.20
2022-12-17T10:40:13.993Z,49.17
2022-12-17T10:41:13.999Z,49.34
2022-12-17T10:42:13.968Z,49.27
2022-12-17T10:43:14.112Z,49.28
2022-12-17T10:44:13.971Z,49.39
2022-12-17T10:45:14.084Z,49.39
2022-12-17T10:46:13.986Z,49.36
2022-12-17T10:47:13.960Z,49.46
2022-12-17T10:48:13.939Z,49.50
2022-12-17T10:49:13.921Z,49.53
2022-12-17T10:50:13.915Z,49.54
2022-12-17T10:51:14.101Z,49.55
2022-12-17T10:52:14.090Z,49.55
2022-12-17T10:53:13.895Z,49.63
2022-12-17T10:54:13.857Z,49.62
2022-12-17T10:55:13.871Z,49.74
2022-12-17T10:56:13.838Z,49.63
2022-12-17T10:57:13.820Z,49.69
2022-12-17T10:58:13.842Z,49.66
2022-12-17T10:59:13.804Z,49.75
2022-12-17T11:00:13.794Z,49.76
2022-12-17T11:02:19.765Z,36.24
2022-12-17T11:03:19.608Z,34.87
2022-12-17T11:05:14.804Z,50.88
2022-12-17T11:06:14.772Z,51.13
2022-12-17T11:07:14.736Z,51.01
2022-12-17T11:08:14.669Z,50.93
2022-12-17T11:09:14.758Z,50.87
2022-12-17T11:10:14.702Z,50.70
2022-12-17T11:11:14.550Z,50.71
2022-12-17T11:12:14.546Z,50.55
2022-12-17T11:13:14.455Z,50.38
2022-12-17T11:14:14.405Z,50.26
2022-12-17T11:15:14.431Z,50.11
2022-12-17T11:16:14.326Z,50.10
2022-12-17T11:17:14.223Z,49.96
2022-12-17T11:18:14.112Z,50.04
2022-12-17T11:19:14.078Z,50.05
2022-12-17T11:20:14.077Z,49.95
2022-12-17T11:21:14.136Z,49.68
2022-12-17T11:22:14.050Z,49.73
2022-12-17T11:23:13.813Z,49.70
2022-12-17T11:24:17.703Z,49.83
2022-12-17T11:25:14.809Z,49.78
2022-12-17T11:26:13.601Z,49.77
2022-12-17T11:27:13.570Z,49.68
2022-12-17T11:28:13.560Z,49.70
2022-12-17T11:29:13.452Z,49.65
2022-12-17T11:30:13.496Z,49.64
2022-12-17T11:31:13.414Z,49.57
2022-12-17T11:32:13.228Z,49.55
2022-12-17T11:33:13.187Z,49.50
2022-12-17T11:34:13.054Z,49.42
2022-12-17T11:35:13.027Z,49.31
2022-12-17T11:36:12.940Z,49.27
2022-12-17T11:37:12.863Z,49.16
2022-12-17T11:38:12.777Z,49.16
2022-12-17T11:39:12.731Z,49.04
2022-12-17T11:40:12.791Z,48.97
2022-12-17T11:41:12.959Z,48.89
2022-12-17T11:42:12.483Z,48.79
2022-12-17T11:43:12.419Z,48.71
2022-12-17T11:44:12.331Z,48.79
2022-12-17T11:45:12.273Z,48.73
2022-12-17T11:46:12.245Z,48.73
2022-12-17T11:47:12.173Z,48.65
2022-12-17T11:48:12.030Z,48.63
2022-12-17T11:49:11.967Z,48.63
2022-12-17T11:50:11.876Z,48.67
2022-12-17T11:51:11.991Z,48.63
2022-12-17T11:52:11.709Z,48.58
2022-12-17T11:53:11.660Z,48.60
2022-12-17T11:54:11.591Z,48.60
2022-12-17T11:55:11.638Z,48.56
2022-12-17T11:56:11.719Z,48.60
2022-12-17T11:57:11.355Z,48.59
2022-12-17T11:58:11.385Z,48.64
2022-12-17T11:59:11.237Z,48.58
2022-12-17T12:00:11.113Z,48.60
2022-12-17T12:01:11.243Z,48.59
2022-12-17T12:02:11.151Z,48.53
2022-12-17T12:03:11.116Z,48.57
2022-12-17T12:04:10.832Z,48.61
2022-12-17T12:05:10.745Z,48.63
2022-12-17T12:06:10.690Z,48.65
2022-12-17T12:07:10.625Z,48.59
2022-12-17T12:08:10.501Z,48.66
2022-12-17T12:09:10.465Z,48.69
2022-12-17T12:10:10.495Z,48.73
2022-12-17T12:11:10.337Z,48.76
2022-12-17T12:12:10.222Z,48.80
2022-12-17T12:13:10.204Z,48.82
2022-12-17T12:14:10.096Z,48.83
2022-12-17T12:15:10.359Z,48.80
2022-12-17T12:16:10.156Z,48.92
2022-12-17T12:17:09.923Z,48.98
2022-12-17T12:18:09.871Z,49.02
2022-12-17T12:19:09.727Z,49.06
2022-12-17T12:20:09.633Z,49.02
2022-12-17T12:21:09.577Z,49.02
2022-12-17T12:22:09.459Z,49.00
2022-12-17T12:23:09.535Z,49.02
2022-12-17T12:24:09.321Z,49.05
2022-12-17T12:25:09.281Z,49.08
2022-12-17T12:26:09.169Z,49.05
2022-12-17T12:27:09.133Z,49.06
2022-12-17T12:28:09.114Z,49.11
2022-12-17T12:29:08.995Z,49.17
2022-12-17T12:30:08.850Z,49.13
2022-12-17T12:31:09.097Z,49.15
2022-12-17T12:32:08.710Z,49.16
2022-12-17T12:33:10.323Z,49.09
2022-12-17T12:34:08.555Z,49.14
2022-12-17T12:35:08.706Z,49.13
2022-12-17T12:36:08.439Z,49.13
2022-12-17T12:37:08.365Z,49.09
2022-12-17T12:38:08.328Z,49.12
2022-12-17T12:39:08.187Z,49.09
2022-12-17T12:40:08.106Z,49.08
2022-12-17T12:41:08.073Z,49.04
2022-12-17T12:42:07.970Z,48.97
2022-12-17T12:43:07.945Z,49.12
2022-12-17T12:44:07.828Z,49.32
2022-12-17T12:45:07.743Z,49.28
2022-12-17T12:46:07.815Z,49.28
2022-12-17T12:47:07.657Z,49.41
2022-12-17T12:48:07.555Z,49.38
2022-12-17T12:49:07.460Z,49.39
2022-12-17T12:50:07.354Z,49.32
2022-12-17T12:51:07.365Z,49.30
2022-12-17T12:52:07.189Z,49.27
2022-12-17T12:53:07.323Z,49.31
2022-12-17T12:54:07.038Z,49.31